Time;durP1;ratioP1;P1;durP2;ratioP2;P2;SDS_P1;SDS_P2;PMS_P1;PMS_P2;Temp;Humidity;BMP_temperature;BMP_pressure;BME280_temperature;BME280_humidity;BME280_pressure;Samples;Min_cycle;Max_cycle;Signal;HPM_P1;HPM_P2
2023/11/15 00:01:38;;;;;;;1.92;0.68;;;11.50;99.90;;;;;;4969640;28;20091;-48
2023/11/15 00:04:03;;;;;;;4.63;0.90;;;11.50;99.90;;;;;;4969390;28;20513;-50
2023/11/15 00:06:29;;;;;;;4.75;0.85;;;11.50;99.90;;;;;;4970700;28;20439;-47
2023/11/15 00:08:55;;;;;;;2.30;1.33;;;11.50;99.90;;;;;;4969006;28;20571;-46
2023/11/15 00:11:21;;;;;;;0.55;0.52;;;11.60;99.90;;;;;;4968850;28;20081;-45
2023/11/15 00:13:50;;;;;;;4.78;0.90;;;11.60;99.90;;;;;;4963839;28;20027;-46
2023/11/15 00:16:16;;;;;;;4.30;0.70;;;11.60;99.90;;;;;;4949970;28;20022;-54
2023/11/15 00:18:42;;;;;;;2.83;0.70;;;11.60;99.90;;;;;;4947741;28;20016;-50
2023/11/15 00:21:08;;;;;;;4.47;1.10;;;11.60;99.90;;;;;;4948307;28;20510;-48
2023/11/15 00:23:34;;;;;;;4.75;0.80;;;12.00;99.90;;;;;;4948969;28;20123;-47
2023/11/15 00:26:00;;;;;;;1.90;1.10;;;11.60;99.90;;;;;;4948507;28;20538;-52
2023/11/15 00:28:26;;;;;;;0.82;0.50;;;11.60;99.90;;;;;;4949511;28;20034;-46
2023/11/15 00:30:52;;;;;;;1.73;0.80;;;11.70;99.90;;;;;;4949758;28;20073;-47
2023/11/15 00:33:18;;;;;;;2.45;1.23;;;11.70;99.90;;;;;;4950307;28;20026;-47
2023/11/15 00:35:43;;;;;;;2.22;1.00;;;11.70;99.90;;;;;;4950302;28;20499;-48
2023/11/15 00:38:11;;;;;;;4.63;0.77;;;11.70;99.90;;;;;;4950147;28;20122;-45
2023/11/15 00:40:37;;;;;;;3.42;0.90;;;11.70;99.90;;;;;;4949921;28;20033;-45
2023/11/15 00:43:03;;;;;;;4.05;1.25;;;11.80;99.90;;;;;;4950189;28;20027;-49
2023/11/15 00:45:29;;;;;;;2.10;1.20;;;11.80;99.90;;;;;;4950040;28;20023;-50
2023/11/15 00:47:54;;;;;;;2.78;0.85;;;11.80;99.90;;;;;;4949977;28;20463;-46
2023/11/15 00:50:20;;;;;;;2.08;0.65;;;11.80;99.90;;;;;;4949913;29;20031;-42
2023/11/15 00:52:46;;;;;;;3.13;1.20;;;11.80;99.90;;;;;;4950437;28;20508;-44
2023/11/15 00:55:12;;;;;;;1.20;1.00;;;11.80;99.90;;;;;;4950114;28;20036;-46
2023/11/15 00:57:39;;;;;;;1.83;0.60;;;11.80;99.90;;;;;;4950122;28;20487;-45
2023/11/15 01:00:23;;;;;;;3.67;1.10;;;11.80;99.90;;;;;;4950468;28;20027;-43
2023/11/15 01:02:54;;;;;;;3.83;0.73;;;11.80;99.90;;;;;;4950439;28;20028;-44
2023/11/15 01:05:20;;;;;;;2.45;0.80;;;11.80;99.90;;;;;;4950604;28;20084;-43
2023/11/15 01:07:46;;;;;;;1.50;1.13;;;11.80;99.90;;;;;;4950144;28;20108;-47
2023/11/15 01:10:12;;;;;;;1.77;0.93;;;11.80;99.90;;;;;;4950162;29;20031;-44
2023/11/15 01:12:38;;;;;;;3.80;0.50;;;11.80;99.90;;;;;;4950113;28;20043;-44
2023/11/15 01:15:05;;;;;;;6.10;1.05;;;11.80;99.90;;;;;;4953850;28;20042;-43
2023/11/15 01:17:34;;;;;;;3.22;0.68;;;11.80;99.90;;;;;;4953073;28;20038;-49
2023/11/15 01:20:00;;;;;;;7.32;0.80;;;11.80;99.90;;;;;;4953060;28;20102;-45
2023/11/15 01:22:26;;;;;;;2.03;0.93;;;11.90;99.90;;;;;;4952746;28;20037;-49
2023/11/15 01:24:51;;;;;;;0.93;0.60;;;11.80;99.90;;;;;;4951690;29;20031;-47
2023/11/15 01:27:17;;;;;;;3.75;0.75;;;11.90;99.90;;;;;;4952779;28;20506;-47
2023/11/15 01:29:43;;;;;;;3.60;0.98;;;11.90;99.90;;;;;;4952892;28;20094;-50
2023/11/15 01:32:08;;;;;;;2.88;1.23;;;11.90;99.90;;;;;;4952419;28;20050;-53
2023/11/15 01:34:34;;;;;;;2.28;0.70;;;11.90;99.90;;;;;;4952663;28;20070;-46
2023/11/15 01:37:00;;;;;;;2.03;0.75;;;11.90;99.90;;;;;;4951745;28;20418;-46
2023/11/15 01:39:25;;;;;;;4.53;0.80;;;11.90;99.90;;;;;;4951761;28;20046;-48
2023/11/15 01:41:51;;;;;;;4.57;0.85;;;11.90;99.90;;;;;;4951603;28;20051;-49
2023/11/15 01:44:18;;;;;;;1.25;0.80;;;11.90;99.90;;;;;;4951574;28;20110;-45
2023/11/15 01:46:49;;;;;;;0.93;0.55;;;11.90;99.90;;;;;;4951581;28;20554;-46
2023/11/15 01:49:17;;;;;;;4.93;1.15;;;11.90;99.90;;;;;;4951669;28;20115;-51
2023/11/15 01:51:43;;;;;;;1.63;0.82;;;11.90;99.90;;;;;;4951462;28;20395;-47
2023/11/15 01:54:10;;;;;;;3.80;1.15;;;11.90;99.90;;;;;;4951543;29;20023;-47
2023/11/15 01:56:36;;;;;;;2.10;0.70;;;11.90;99.90;;;;;;4951420;28;20088;-51
2023/11/15 01:59:02;;;;;;;3.33;1.02;;;11.90;99.90;;;;;;4951507;28;20031;-51
2023/11/15 02:01:31;;;;;;;2.92;1.00;;;11.80;99.90;;;;;;4951316;28;20039;-49
2023/11/15 02:03:56;;;;;;;2.88;1.08;;;11.80;99.90;;;;;;4951541;28;20059;-49
2023/11/15 02:06:27;;;;;;;2.58;0.63;;;11.80;99.90;;;;;;4951115;28;20568;-48
2023/11/15 02:08:52;;;;;;;9.73;1.13;;;11.80;99.90;;;;;;4950142;28;20028;-50
2023/11/15 02:11:18;;;;;;;5.57;1.30;;;11.70;99.90;;;;;;4951136;28;20498;-45
2023/11/15 02:13:44;;;;;;;7.75;1.58;;;11.70;99.90;;;;;;4950047;29;20015;-44
2023/11/15 02:16:10;;;;;;;5.20;1.23;;;11.70;99.90;;;;;;4951107;28;20038;-45
2023/11/15 02:18:36;;;;;;;35.63;2.60;;;11.70;99.90;;;;;;4951228;28;20395;-44
2023/11/15 02:21:01;;;;;;;3.40;1.00;;;11.60;99.90;;;;;;4951105;29;20028;-46
2023/11/15 02:23:28;;;;;;;2.40;1.30;;;11.60;99.90;;;;;;4951177;28;20035;-44
2023/11/15 02:25:54;;;;;;;3.05;0.70;;;11.60;99.90;;;;;;4950328;28;20114;-46
2023/11/15 02:28:19;;;;;;;2.60;0.82;;;11.60;99.90;;;;;;4951052;28;20459;-49
2023/11/15 02:30:45;;;;;;;2.40;0.63;;;11.60;99.90;;;;;;4950700;28;20031;-47
2023/11/15 02:33:12;;;;;;;1.50;0.55;;;11.60;99.90;;;;;;4950945;29;20023;-46
2023/11/15 02:35:38;;;;;;;5.60;0.80;;;11.60;99.90;;;;;;4914045;28;1079064;-48
2023/11/15 02:38:03;;;;;;;3.35;1.00;;;11.60;99.90;;;;;;4951918;29;20042;-47
2023/11/15 02:40:29;;;;;;;3.40;1.05;;;11.60;99.90;;;;;;4950562;29;20380;-50
2023/11/15 02:42:54;;;;;;;3.47;1.45;;;11.60;99.90;;;;;;4951614;28;20035;-46
2023/11/15 02:45:20;;;;;;;4.40;1.58;;;11.50;99.90;;;;;;4951774;28;20054;-44
2023/11/15 02:47:46;;;;;;;1.98;0.85;;;11.60;99.90;;;;;;4951640;28;20055;-45
2023/11/15 02:50:13;;;;;;;4.07;0.98;;;11.60;99.90;;;;;;4951730;28;20027;-45
2023/11/15 02:52:40;;;;;;;2.40;1.02;;;11.60;99.90;;;;;;4951405;28;20521;-49
2023/11/15 02:55:06;;;;;;;4.25;1.30;;;11.60;99.90;;;;;;4951490;29;20031;-51
2023/11/15 02:57:31;;;;;;;3.90;0.80;;;11.70;99.90;;;;;;4951323;28;20395;-44
2023/11/15 02:59:57;;;;;;;3.42;1.00;;;11.60;99.90;;;;;;4951600;28;20097;-44
2023/11/15 03:02:22;;;;;;;2.78;0.88;;;11.60;99.90;;;;;;4949942;28;20463;-45
2023/11/15 03:04:48;;;;;;;2.47;0.95;;;11.60;99.90;;;;;;4951312;28;20031;-47
2023/11/15 03:07:14;;;;;;;2.10;0.60;;;11.60;99.90;;;;;;4951234;28;20394;-46
2023/11/15 03:09:39;;;;;;;4.25;1.42;;;11.60;99.90;;;;;;4951468;29;20317;-47
2023/11/15 03:12:05;;;;;;;4.95;1.02;;;11.50;99.90;;;;;;4951198;28;20027;-45
2023/11/15 03:14:31;;;;;;;4.32;1.10;;;11.50;99.90;;;;;;4949931;29;20129;-44
2023/11/15 03:17:06;;;;;;;2.28;0.68;;;11.50;99.90;;;;;;4949839;28;20031;-50
2023/11/15 03:19:32;;;;;;;;;;;11.50;99.90;;;;;;4951721;28;20051;-46
2023/11/15 03:21:57;;;;;;;;;;;11.50;99.90;;;;;;4950220;29;20435;-44
2023/11/15 03:24:23;;;;;;;4.53;1.10;;;11.40;99.90;;;;;;4951555;28;19917;-43
2023/11/15 03:26:49;;;;;;;2.65;1.02;;;11.50;99.90;;;;;;4949709;28;20058;-48
2023/11/15 03:29:15;;;;;;;4.50;1.10;;;11.50;99.90;;;;;;4951104;29;20019;-51
2023/11/15 03:31:40;;;;;;;3.25;1.00;;;11.50;99.90;;;;;;4950710;28;20027;-52
2023/11/15 03:34:06;;;;;;;5.43;0.90;;;11.50;99.90;;;;;;4950931;28;20027;-46
2023/11/15 03:36:32;;;;;;;4.07;1.20;;;11.50;99.90;;;;;;4949677;28;20391;-48
2023/11/15 03:38:59;;;;;;;3.78;0.80;;;11.50;99.90;;;;;;4950979;28;20023;-44
2023/11/15 03:41:25;;;;;;;9.18;1.98;;;11.50;99.90;;;;;;4950851;28;20058;-44
2023/11/15 03:43:51;;;;;;;6.72;1.30;;;11.50;99.90;;;;;;4949621;28;20027;-46
2023/11/15 03:46:17;;;;;;;6.97;1.58;;;11.40;99.90;;;;;;4950670;28;20117;-45
2023/11/15 03:48:43;;;;;;;3.35;1.08;;;11.40;99.90;;;;;;4950772;28;20023;-45
2023/11/15 03:51:08;;;;;;;3.42;0.68;;;11.40;99.90;;;;;;4949269;28;20024;-48
2023/11/15 03:53:36;;;;;;;3.45;1.10;;;11.40;99.90;;;;;;4951043;28;20062;-48
2023/11/15 03:56:02;;;;;;;1.92;1.25;;;11.40;99.90;;;;;;4950715;28;20323;-45
2023/11/15 03:58:28;;;;;;;4.40;1.52;;;11.30;99.90;;;;;;4949465;28;20027;-48
2023/11/15 04:00:56;;;;;;;3.15;0.88;;;11.30;99.90;;;;;;4949441;29;20035;-46
2023/11/15 04:03:22;;;;;;;2.63;1.45;;;11.30;99.90;;;;;;4950515;28;20434;-47
2023/11/15 04:05:47;;;;;;;3.45;1.73;;;11.20;99.90;;;;;;4950368;28;20038;-44
2023/11/15 04:08:13;;;;;;;5.43;0.73;;;11.20;99.90;;;;;;4950613;29;20449;-44
2023/11/15 04:10:38;;;;;;;1.70;0.90;;;11.20;99.90;;;;;;4950225;28;20095;-45
2023/11/15 04:13:04;;;;;;;3.17;1.05;;;11.20;99.90;;;;;;4950464;28;20026;-51
2023/11/15 04:15:29;;;;;;;8.52;1.30;;;11.20;99.90;;;;;;4950444;28;20085;-44
2023/11/15 04:17:56;;;;;;;3.33;1.10;;;11.10;99.90;;;;;;4950282;28;20036;-43
2023/11/15 04:20:22;;;;;;;5.05;1.30;;;11.10;99.90;;;;;;4950209;29;20103;-43
2023/11/15 04:22:47;;;;;;;2.05;1.00;;;11.10;99.90;;;;;;4949181;28;20126;-43
2023/11/15 04:25:13;;;;;;;2.10;1.02;;;11.10;99.90;;;;;;4950298;28;20027;-49
2023/11/15 04:27:38;;;;;;;2.13;0.93;;;11.10;99.90;;;;;;4950283;28;20028;-44
2023/11/15 04:30:04;;;;;;;8.27;1.40;;;11.10;99.90;;;;;;4950386;28;20031;-46
2023/11/15 04:32:30;;;;;;;2.95;1.20;;;11.10;99.90;;;;;;4949651;28;20035;-46
2023/11/15 04:34:56;;;;;;;6.38;1.02;;;11.10;99.90;;;;;;4950126;29;20035;-46
2023/11/15 04:37:24;;;;;;;2.83;0.77;;;11.10;99.90;;;;;;4950079;28;20414;-45
2023/11/15 04:39:49;;;;;;;8.07;1.00;;;11.20;99.90;;;;;;4950163;28;20020;-51
2023/11/15 04:42:15;;;;;;;6.40;2.03;;;11.10;99.90;;;;;;4948758;28;20023;-45
2023/11/15 04:44:41;;;;;;;4.10;1.00;;;11.20;99.90;;;;;;4950055;28;20495;-45
2023/11/15 04:47:07;;;;;;;2.40;1.15;;;11.10;99.90;;;;;;4948827;28;20495;-45
2023/11/15 04:49:32;;;;;;;1.58;1.35;;;11.10;99.90;;;;;;4952744;28;20102;-46
2023/11/15 04:51:58;;;;;;;3.47;1.35;;;11.10;99.90;;;;;;4953203;28;20395;-45
2023/11/15 04:54:23;;;;;;;7.38;1.50;;;11.10;99.90;;;;;;4953376;29;20110;-44
2023/11/15 04:56:49;;;;;;;2.22;1.00;;;11.10;99.90;;;;;;4952387;28;20236;-44
2023/11/15 04:59:14;;;;;;;8.50;1.20;;;11.00;99.90;;;;;;4954225;28;20032;-44
2023/11/15 05:01:41;;;;;;;3.33;1.33;;;10.90;99.90;;;;;;4953082;28;20058;-47
2023/11/15 05:04:07;;;;;;;3.65;0.82;;;10.90;99.90;;;;;;4953077;28;20023;-45
2023/11/15 05:06:33;;;;;;;3.08;1.10;;;10.80;99.90;;;;;;4953040;28;20019;-47
2023/11/15 05:08:59;;;;;;;2.17;0.93;;;10.80;99.90;;;;;;4953508;29;20483;-47
2023/11/15 05:11:25;;;;;;;5.55;1.20;;;10.80;99.90;;;;;;4953174;29;20066;-48
2023/11/15 05:13:51;;;;;;;5.18;2.00;;;10.80;99.90;;;;;;4953187;28;20146;-45
2023/11/15 05:16:17;;;;;;;8.40;1.80;;;10.80;99.90;;;;;;4951584;28;20043;-45
2023/11/15 05:18:42;;;;;;;2.50;1.15;;;10.80;99.90;;;;;;4953243;29;20043;-49
2023/11/15 05:21:08;;;;;;;4.95;1.02;;;10.70;99.90;;;;;;4953086;29;20073;-45
2023/11/15 05:23:33;;;;;;;5.03;1.63;;;10.70;99.90;;;;;;4953017;28;20028;-46
2023/11/15 05:25:59;;;;;;;6.35;1.67;;;10.70;99.90;;;;;;4952875;28;20027;-46
2023/11/15 05:28:25;;;;;;;3.17;1.05;;;10.60;99.90;;;;;;4952889;28;20486;-44
2023/11/15 05:30:51;;;;;;;8.25;1.63;;;10.60;99.90;;;;;;4952523;28;20027;-49
2023/11/15 05:33:16;;;;;;;5.63;1.40;;;10.60;99.90;;;;;;4952870;28;20039;-42
2023/11/15 05:38:08;;;;;;;3.25;1.55;;;10.60;99.90;;;;;;4985029;23;20051;-48
2023/11/15 05:40:34;;;;;;;5.35;1.73;;;10.70;99.90;;;;;;4972432;28;20023;-47
2023/11/15 05:42:59;;;;;;;8.88;2.20;;;10.70;99.90;;;;;;4972182;28;20030;-46
2023/11/15 05:45:25;;;;;;;3.83;0.95;;;10.70;99.90;;;;;;4972151;28;20078;-47
2023/11/15 05:47:51;;;;;;;3.22;1.20;;;10.60;99.90;;;;;;4972296;28;20018;-45
2023/11/15 05:50:17;;;;;;;5.95;1.45;;;10.70;99.90;;;;;;4972229;28;20023;-45
2023/11/15 05:52:43;;;;;;;4.63;1.40;;;10.70;99.90;;;;;;4972081;28;20506;-48
2023/11/15 05:55:11;;;;;;;4.22;1.15;;;10.70;99.90;;;;;;4972367;28;20026;-46
2023/11/15 05:57:37;;;;;;;7.38;1.60;;;10.70;99.90;;;;;;4971736;28;20110;-50
2023/11/15 06:00:10;;;;;;;8.23;1.75;;;10.70;99.90;;;;;;4971129;28;20109;-48
2023/11/15 06:02:36;;;;;;;10.27;1.60;;;10.70;99.90;;;;;;4971658;28;20383;-46
2023/11/15 06:05:01;;;;;;;11.32;1.50;;;10.70;99.90;;;;;;4971789;28;20041;-45
2023/11/15 06:07:27;;;;;;;10.98;1.98;;;10.70;99.90;;;;;;4971690;28;20031;-48
2023/11/15 06:09:53;;;;;;;8.00;1.85;;;10.70;99.90;;;;;;4971975;28;20046;-48
2023/11/15 06:12:19;;;;;;;7.32;1.42;;;10.70;99.90;;;;;;4971476;28;20023;-51
2023/11/15 06:14:46;;;;;;;6.15;1.70;;;10.70;99.90;;;;;;4971814;28;20375;-49
2023/11/15 06:17:11;;;;;;;11.23;1.95;;;10.80;99.90;;;;;;4971805;28;20105;-46
2023/11/15 06:19:37;;;;;;;6.40;1.90;;;10.80;99.90;;;;;;4971850;28;20455;-48
2023/11/15 06:22:03;;;;;;;11.10;2.22;;;10.70;99.90;;;;;;4971561;28;20410;-49
2023/11/15 06:24:29;;;;;;;8.77;1.80;;;10.70;99.90;;;;;;4971254;28;20035;-47
2023/11/15 06:26:54;;;;;;;6.55;1.15;;;10.70;99.90;;;;;;4971369;28;20088;-48
2023/11/15 06:29:22;;;;;;;6.07;1.50;;;10.70;99.90;;;;;;4971391;28;20023;-49
2023/11/15 06:31:48;;;;;;;8.13;1.63;;;10.70;99.90;;;;;;4970740;28;20119;-48
2023/11/15 06:34:14;;;;;;;3.75;1.42;;;10.70;99.90;;;;;;4971759;28;20023;-46
2023/11/15 06:36:44;;;;;;;6.20;1.63;;;10.60;99.90;;;;;;4971073;28;20399;-47
2023/11/15 06:39:12;;;;;;;3.97;1.17;;;10.60;99.90;;;;;;4971265;28;20060;-47
2023/11/15 06:41:38;;;;;;;9.10;1.70;;;10.60;99.90;;;;;;4970868;28;20106;-46
2023/11/15 06:44:08;;;;;;;10.75;1.50;;;10.60;99.90;;;;;;4970900;28;20393;-46
2023/11/15 06:46:38;;;;;;;12.23;1.92;;;10.60;99.90;;;;;;4970653;28;20624;-48
2023/11/15 06:49:12;;;;;;;5.72;1.98;;;10.60;99.90;;;;;;4970976;28;20027;-44
2023/11/15 06:51:38;;;;;;;7.50;1.67;;;10.60;99.90;;;;;;4971231;28;20106;-46
2023/11/15 06:54:04;;;;;;;10.32;2.38;;;10.50;99.90;;;;;;4971101;28;20027;-47
2023/11/15 06:56:30;;;;;;;6.78;1.60;;;10.50;99.90;;;;;;4970797;28;20031;-46
2023/11/15 06:58:55;;;;;;;9.30;2.70;;;10.50;99.90;;;;;;4970943;28;20030;-47
2023/11/15 07:01:21;;;;;;;8.18;1.80;;;10.50;99.90;;;;;;4972198;28;20072;-47
2023/11/15 07:03:47;;;;;;;7.72;1.50;;;10.50;99.90;;;;;;4971212;28;20470;-46
2023/11/15 07:06:16;;;;;;;5.78;1.50;;;10.50;99.90;;;;;;4969850;28;20559;-47
2023/11/15 07:08:41;;;;;;;3.60;1.10;;;10.50;99.90;;;;;;4971302;28;20029;-47
2023/11/15 07:11:10;;;;;;;4.20;1.10;;;10.50;99.90;;;;;;4970775;28;20026;-48
2023/11/15 07:13:36;;;;;;;11.05;3.03;;;10.50;99.90;;;;;;4970843;28;20084;-47
2023/11/15 07:16:04;;;;;;;7.13;2.17;;;10.40;99.90;;;;;;4970707;28;20034;-47
2023/11/15 07:18:31;;;;;;;4.95;1.85;;;10.50;99.90;;;;;;4970746;28;20436;-47
2023/11/15 07:20:57;;;;;;;6.95;1.90;;;10.50;99.90;;;;;;4970527;28;20053;-50
2023/11/15 07:23:22;;;;;;;1.83;1.33;;;10.50;99.90;;;;;;4969309;28;20027;-47
2023/11/15 07:25:48;;;;;;;9.85;1.83;;;10.60;99.90;;;;;;4970528;28;20030;-49
2023/11/15 07:28:13;;;;;;;6.03;1.30;;;10.60;99.90;;;;;;4970394;28;20109;-46
2023/11/15 07:30:42;;;;;;;7.47;1.48;;;10.60;99.90;;;;;;4970174;28;20019;-49
2023/11/15 07:33:07;;;;;;;9.63;2.00;;;10.70;99.90;;;;;;4970747;28;20019;-48
2023/11/15 07:35:36;;;;;;;3.97;1.20;;;10.80;99.90;;;;;;4970410;28;20031;-48
2023/11/15 07:38:01;;;;;;;7.47;1.65;;;10.80;99.90;;;;;;4970507;28;20031;-46
2023/11/15 07:40:28;;;;;;;3.13;1.25;;;10.80;99.90;;;;;;4970341;28;20498;-47
2023/11/15 07:42:53;;;;;;;3.08;1.42;;;10.90;99.90;;;;;;4970327;28;20449;-47
2023/11/15 07:45:19;;;;;;;10.05;1.63;;;10.90;99.90;;;;;;4968870;28;20118;-47
2023/11/15 07:47:45;;;;;;;8.77;1.63;;;10.90;99.90;;;;;;4968916;28;20023;-46
2023/11/15 07:50:11;;;;;;;14.13;1.60;;;10.90;99.90;;;;;;4969319;28;20490;-49
2023/11/15 07:52:37;;;;;;;7.43;2.20;;;10.90;99.90;;;;;;4968960;28;20122;-49
2023/11/15 07:55:05;;;;;;;3.75;1.52;;;10.80;99.90;;;;;;4970312;28;20023;-47
2023/11/15 07:57:31;;;;;;;6.72;1.95;;;10.90;99.90;;;;;;4969965;28;20026;-47
2023/11/15 07:59:57;;;;;;;6.90;1.67;;;10.90;99.90;;;;;;4970287;28;20375;-47
2023/11/15 08:02:23;;;;;;;3.92;1.30;;;10.80;99.90;;;;;;4968794;28;20450;-48
2023/11/15 08:04:49;;;;;;;8.63;2.20;;;10.80;99.90;;;;;;4970239;28;20062;-48
2023/11/15 08:07:16;;;;;;;4.85;2.10;;;10.90;99.90;;;;;;4970061;28;20506;-48
2023/11/15 08:09:41;;;;;;;13.98;2.88;;;10.90;99.90;;;;;;4969116;28;20027;-50
2023/11/15 08:12:07;;;;;;;7.32;1.92;;;11.00;99.90;;;;;;4969854;28;20053;-47
2023/11/15 08:14:33;;;;;;;6.05;1.70;;;11.10;99.90;;;;;;4970037;28;20073;-49
2023/11/15 08:16:59;;;;;;;4.43;1.30;;;11.20;99.90;;;;;;4970231;28;20030;-46
2023/11/15 08:19:25;;;;;;;4.85;1.40;;;11.40;99.90;;;;;;4970376;28;20045;-50
2023/11/15 08:21:52;;;;;;;7.68;1.50;;;11.50;99.90;;;;;;4970300;28;20102;-50
2023/11/15 08:24:24;;;;;;;5.35;1.98;;;11.60;99.90;;;;;;4972688;28;20031;-46
2023/11/15 08:26:52;;;;;;;8.75;1.45;;;11.60;99.90;;;;;;4972091;28;20027;-49
2023/11/15 08:29:18;;;;;;;3.45;1.42;;;11.70;99.90;;;;;;4973329;28;20042;-47
2023/11/15 08:31:44;;;;;;;6.70;2.08;;;11.70;99.90;;;;;;4973275;28;20023;-49
2023/11/15 08:34:10;;;;;;;6.10;1.85;;;11.80;99.90;;;;;;4973249;28;20487;-46
2023/11/15 08:36:37;;;;;;;6.78;1.95;;;11.80;99.90;;;;;;4973264;28;20046;-49
2023/11/15 08:39:02;;;;;;;9.88;2.40;;;11.80;99.90;;;;;;4973169;28;20031;-48
2023/11/15 08:41:28;;;;;;;14.05;2.85;;;11.80;99.90;;;;;;4972610;28;20102;-48
2023/11/15 08:43:54;;;;;;;9.35;2.53;;;11.90;99.90;;;;;;4972993;28;20031;-49
2023/11/15 08:46:20;;;;;;;6.60;1.63;;;12.10;99.90;;;;;;4972850;28;20068;-48
2023/11/15 08:48:45;;;;;;;11.73;2.20;;;12.70;99.90;;;;;;4972913;28;20084;-46
2023/11/15 08:51:11;;;;;;;10.45;1.65;;;13.30;99.90;;;;;;4972918;28;20026;-48
2023/11/15 08:53:38;;;;;;;6.50;1.63;;;13.40;99.90;;;;;;4972937;28;20057;-48
2023/11/15 08:56:07;;;;;;;5.00;2.13;;;13.30;99.90;;;;;;4972707;28;20031;-48
2023/11/15 08:58:33;;;;;;;5.90;1.40;;;13.40;99.90;;;;;;4972959;28;20022;-48
2023/11/15 09:01:01;;;;;;;5.90;1.40;;;13.70;99.90;;;;;;4971262;28;20039;-49
2023/11/15 09:03:27;;;;;;;6.03;1.35;;;14.20;99.90;;;;;;4972653;28;20160;-51
2023/11/15 09:05:53;;;;;;;7.65;1.70;;;14.20;99.90;;;;;;4972551;28;20118;-48
2023/11/15 09:08:21;;;;;;;6.50;1.88;;;14.10;99.90;;;;;;4972814;28;20031;-50
2023/11/15 09:10:47;;;;;;;4.30;1.42;;;13.90;99.90;;;;;;4972591;28;20023;-47
2023/11/15 09:13:15;;;;;;;8.15;1.85;;;13.60;99.90;;;;;;4972762;28;20023;-49
2023/11/15 09:15:41;;;;;;;4.60;1.42;;;14.90;99.90;;;;;;4972885;28;20031;-49
2023/11/15 09:18:09;;;;;;;7.05;1.50;;;15.20;99.90;;;;;;4972451;28;20106;-52
2023/11/15 09:20:34;;;;;;;2.35;1.00;;;16.00;99.90;;;;;;4972461;28;20452;-49
2023/11/15 09:23:00;;;;;;;4.28;1.40;;;16.50;99.90;;;;;;4971358;28;20027;-49
2023/11/15 09:25:27;;;;;;;7.35;1.35;;;16.90;99.90;;;;;;4972160;28;20371;-52
2023/11/15 09:27:55;;;;;;;5.18;1.30;;;17.20;99.90;;;;;;4972286;28;20026;-48
2023/11/15 09:30:21;;;;;;;7.00;1.60;;;17.20;99.90;;;;;;4969291;28;20019;-48
2023/11/15 09:32:49;;;;;;;2.92;1.10;;;16.80;99.90;;;;;;4971110;28;20030;-51
2023/11/15 09:35:16;;;;;;;5.78;1.42;;;16.10;99.90;;;;;;4971626;28;20033;-49
2023/11/15 09:37:42;;;;;;;6.55;1.48;;;15.80;99.90;;;;;;4971590;28;20522;-51
2023/11/15 09:40:10;;;;;;;3.85;1.27;;;15.60;99.90;;;;;;4972096;28;20030;-47
2023/11/15 09:42:44;;;;;;;6.95;1.55;;;15.30;99.90;;;;;;4970732;28;20133;-49
2023/11/15 09:45:16;;;;;;;5.07;1.25;;;14.70;99.90;;;;;;4971145;28;20113;-51
2023/11/15 09:47:47;;;;;;;8.20;1.58;;;14.20;99.90;;;;;;4970279;28;20394;-49
2023/11/15 09:50:22;;;;;;;4.60;1.30;;;14.00;99.90;;;;;;4971440;28;20034;-47
2023/11/15 09:52:49;;;;;;;5.72;1.63;;;13.80;99.90;;;;;;4972309;28;20023;-47
2023/11/15 09:55:16;;;;;;;7.35;1.65;;;13.70;99.90;;;;;;4971876;28;20041;-48
2023/11/15 09:57:43;;;;;;;5.35;1.90;;;13.60;99.90;;;;;;4971836;28;20027;-50
2023/11/15 10:00:11;;;;;;;5.82;1.30;;;13.60;99.90;;;;;;4971879;28;20050;-50
2023/11/15 10:02:39;;;;;;;4.03;1.30;;;13.50;99.90;;;;;;4971633;28;20425;-52
2023/11/15 10:05:14;;;;;;;5.15;1.58;;;13.50;99.90;;;;;;4971713;28;20482;-50
2023/11/15 10:07:42;;;;;;;5.30;1.20;;;13.40;99.90;;;;;;4971589;28;20027;-50
2023/11/15 10:10:20;;;;;;;8.07;1.88;;;13.30;99.90;;;;;;4971675;28;20025;-50
2023/11/15 10:12:49;;;;;;;7.20;1.10;;;13.20;99.90;;;;;;4971407;28;20027;-51
2023/11/15 10:15:16;;;;;;;3.67;1.55;;;13.20;99.90;;;;;;4971439;28;20034;-51
2023/11/15 10:17:46;;;;;;;0.88;0.85;;;13.10;99.90;;;;;;4971216;28;20030;-47
2023/11/15 10:20:20;;;;;;;5.13;1.42;;;13.10;99.90;;;;;;4971372;28;20027;-48
2023/11/15 10:22:47;;;;;;;2.53;0.93;;;13.00;99.90;;;;;;4971075;28;20061;-52
2023/11/15 10:25:13;;;;;;;5.10;1.13;;;12.80;99.90;;;;;;4971423;28;20026;-45
2023/11/15 10:27:40;;;;;;;5.43;1.27;;;12.60;99.90;;;;;;4971181;28;20093;-48
2023/11/15 10:30:22;;;;;;;4.45;1.25;;;12.60;99.90;;;;;;4970918;28;20035;-50
2023/11/15 10:32:48;;;;;;;3.17;1.77;;;12.60;99.90;;;;;;4966620;28;20517;-48
2023/11/15 10:35:27;;;;;;;10.00;1.63;;;;;;;;;;4952396;28;20483;-47
2023/11/15 10:37:53;;;;;;;5.38;1.35;;;12.50;99.90;;;;;;4961875;28;20107;-45
2023/11/15 10:40:21;;;;;;;8.25;1.90;;;12.50;99.90;;;;;;4970613;28;20019;-46
2023/11/15 10:42:51;;;;;;;6.13;1.45;;;12.50;99.90;;;;;;4970499;28;20027;-46
2023/11/15 10:45:17;;;;;;;5.20;1.67;;;12.60;99.90;;;;;;4970279;28;21685;-46
2023/11/15 10:48:10;;;;;;;10.00;1.70;;;12.80;99.90;;;;;;4970653;28;20018;-50
2023/11/15 10:50:45;;;;;;;6.50;1.60;;;12.90;99.90;;;;;;4971321;28;20039;-48
2023/11/15 10:53:11;;;;;;;4.57;1.55;;;12.90;99.90;;;;;;4969811;28;20600;-48
2023/11/15 10:55:40;;;;;;;9.35;1.70;;;13.10;99.90;;;;;;4970899;28;20508;-48
2023/11/15 10:58:08;;;;;;;6.78;1.88;;;13.00;99.90;;;;;;4970473;28;20031;-47
2023/11/15 11:00:35;;;;;;;5.40;1.55;;;13.10;99.90;;;;;;4969557;28;20029;-46
2023/11/15 11:03:05;;;;;;;6.25;1.27;;;13.20;99.90;;;;;;4970987;28;20023;-45
2023/11/15 11:05:56;;;;;;;3.63;1.35;;;13.30;99.90;;;;;;4951687;28;20102;-47
2023/11/15 11:08:34;;;;;;;5.57;1.63;;;13.50;99.90;;;;;;4966510;28;20437;-50
2023/11/15 11:11:05;;;;;;;4.05;1.10;;;13.80;99.90;;;;;;4970374;28;20022;-46
2023/11/15 11:13:33;;;;;;;8.82;3.17;;;;;;;;;;4969886;28;20015;-51
2023/11/15 11:16:28;;;;;;;52.15;31.95;;;14.20;99.90;;;;;;4971091;28;20478;-45
2023/11/15 11:19:11;;;;;;;7.97;2.50;;;14.30;99.90;;;;;;4974610;28;20431;-45
2023/11/15 11:22:03;;;;;;;4.88;1.27;;;14.20;99.90;;;;;;4970614;28;20023;-45
2023/11/15 11:24:32;;;;;;;5.00;1.55;;;14.20;99.90;;;;;;4970670;28;20027;-45
2023/11/15 11:27:13;;;;;;;3.53;1.52;;;14.00;99.90;;;;;;4970301;28;20023;-48
2023/11/15 11:29:55;;;;;;;9.18;1.40;;;14.00;99.90;;;;;;4953919;28;20042;-52
2023/11/15 11:32:26;;;;;;;4.18;0.93;;;14.00;99.90;;;;;;4964926;28;20044;-51
2023/11/15 11:35:04;;;;;;;1.80;0.90;;;14.00;99.90;;;;;;4968777;28;20462;-48
2023/11/15 11:37:46;;;;;;;5.53;1.20;;;13.90;99.90;;;;;;4991357;23;20515;-47
2023/11/15 11:40:13;;;;;;;3.85;0.93;;;13.90;99.90;;;;;;4970260;28;20394;-51
2023/11/15 11:42:40;;;;;;;3.33;0.80;;;13.80;99.90;;;;;;4969149;28;20023;-45
2023/11/15 11:45:07;;;;;;;3.67;1.35;;;13.80;99.90;;;;;;4985558;28;20391;-45
2023/11/15 11:47:38;;;;;;;2.30;1.10;;;13.80;99.90;;;;;;4989220;28;20100;-50
2023/11/15 11:50:06;;;;;;;1.52;0.63;;;13.80;99.90;;;;;;4989697;28;20400;-43
2023/11/15 11:52:34;;;;;;;7.03;1.38;;;13.70;99.90;;;;;;4972860;28;20033;-49
2023/11/15 11:55:01;;;;;;;8.55;1.30;;;13.60;99.90;;;;;;4978566;28;20163;-46
2023/11/15 11:57:27;;;;;;;3.60;0.80;;;13.60;99.90;;;;;;4977887;28;20482;-54
2023/11/15 12:00:15;;;;;;;4.63;0.70;;;13.60;99.90;;;;;;4985169;28;20041;-48
2023/11/15 12:02:53;;;;;;;5.82;0.90;;;13.50;99.90;;;;;;5071526;28;20420;-49
2023/11/15 12:05:24;;;;;;;3.17;1.33;;;13.40;99.90;;;;;;5037127;28;20026;-54
2023/11/15 12:07:54;;;;;;;2.45;0.80;;;13.30;99.90;;;;;;4970311;28;20023;-49
2023/11/15 12:10:20;;;;;;;1.90;1.13;;;13.30;99.90;;;;;;4973657;28;20118;-48
2023/11/15 12:12:56;;;;;;;4.30;1.23;;;13.30;99.90;;;;;;5060420;28;20094;-50
2023/11/15 12:15:24;;;;;;;4.18;1.42;;;13.50;99.90;;;;;;5041695;28;20052;-47
2023/11/15 12:17:51;;;;;;;7.82;1.10;;;13.20;99.90;;;;;;4969173;28;20038;-59
2023/11/15 12:20:30;;;;;;;2.17;1.02;;;13.00;99.90;;;;;;4952770;28;20031;-48
2023/11/15 12:23:17;;;;;;;0.95;0.70;;;12.90;99.90;;;;;;4970199;28;20035;-57
2023/11/15 12:25:52;;;;;;;4.70;1.48;;;12.80;99.90;;;;;;4969753;28;20030;-55
2023/11/15 12:28:31;;;;;;;24.08;13.60;;;;;;;;;;4970063;28;20023;-47
2023/11/15 12:30:57;;;;;;;3.58;2.78;;;12.70;99.90;;;;;;4988479;28;20482;-55
2023/11/15 12:33:25;;;;;;;2.40;1.55;;;12.60;99.90;;;;;;5000962;28;20029;-52
2023/11/15 12:35:53;;;;;;;1.08;0.98;;;12.60;99.90;;;;;;5071169;28;20033;-49
2023/11/15 12:38:19;;;;;;;6.50;1.10;;;12.50;99.90;;;;;;5013471;28;20030;-49
2023/11/15 12:40:45;;;;;;;3.60;1.20;;;12.50;99.90;;;;;;4951942;28;20216;-51
2023/11/15 12:43:22;;;;;;;7.53;1.55;;;12.50;99.90;;;;;;4977510;28;20440;-48
2023/11/15 12:45:49;;;;;;;1.98;0.70;;;12.60;99.90;;;;;;5040212;28;20502;-54
2023/11/15 12:48:15;;;;;;;3.42;1.10;;;12.60;99.90;;;;;;5047025;28;20477;-54
2023/11/15 12:50:43;;;;;;;2.20;1.30;;;12.70;99.90;;;;;;4988789;28;20037;-51
2023/11/15 12:53:14;;;;;;;3.47;1.42;;;12.70;99.90;;;;;;4979638;28;20110;-45